Time;durP1;ratioP1;P1;durP2;ratioP2;P2;SDS_P1;SDS_P2;PMS_P1;PMS_P2;Temp;Humidity;BMP_temperature;BMP_pressure;BME280_temperature;BME280_humidity;BME280_pressure;Samples;Min_cycle;Max_cycle;Signal;HPM_P1;HPM_P2
2023/03/02 00:01:55;;;;;;;37.40;20.98;;;;;;;;;;5070603;28;20148;-65
2023/03/02 00:04:21;;;;;;;34.60;20.52;;;;;;;;;;5069286;28;20458;-66
2023/03/02 00:06:48;;;;;;;35.95;20.85;;;3.40;99.90;;;;;;5077043;28;20131;-66
2023/03/02 00:09:14;;;;;;;33.45;20.50;;;;;;;;;;5059566;28;20086;-66
2023/03/02 00:11:40;;;;;;;36.15;19.90;;;;;;;;;;5066695;28;20469;-66
2023/03/02 00:14:06;;;;;;;32.63;19.63;;;;;;;;;;5078458;28;20132;-65
2023/03/02 00:16:33;;;;;;;33.17;19.67;;;;;;;;;;5076348;28;20032;-66
2023/03/02 00:18:59;;;;;;;29.10;18.55;;;;;;;;;;5070046;28;20032;-66
2023/03/02 00:21:25;;;;;;;32.90;18.90;;;;;;;;;;5086792;28;20044;-66
2023/03/02 00:23:51;;;;;;;30.02;18.25;;;3.40;99.90;;;;;;5073569;28;20040;-66
2023/03/02 00:26:17;;;;;;;33.40;19.35;;;;;;;;;;5078735;28;20536;-66
2023/03/02 00:28:43;;;;;;;31.05;19.30;;;;;;;;;;5072291;28;20041;-66
2023/03/02 00:31:10;;;;;;;33.67;18.83;;;;;;;;;;5073463;28;20473;-65
2023/03/02 00:33:35;;;;;;;33.03;20.00;;;;;;;;;;5076352;28;20097;-65
2023/03/02 00:36:02;;;;;;;38.17;21.73;;;3.10;99.90;;;;;;5085890;28;20045;-65
2023/03/02 00:38:28;;;;;;;30.38;19.73;;;;;;;;;;5075492;28;20053;-65
2023/03/02 00:40:54;;;;;;;32.40;19.45;;;;;;;;;;5076429;28;20556;-66
2023/03/02 00:43:26;;;;;;;31.35;19.05;;;;;;;;;;5081698;28;20087;-66
2023/03/02 00:45:52;;;;;;;33.45;20.08;;;;;;;;;;5087037;28;20044;-66
2023/03/02 00:48:18;;;;;;;36.30;20.30;;;;;;;;;;5082152;28;20050;-66
2023/03/02 00:50:43;;;;;;;41.67;21.27;;;3.30;99.90;;;;;;5072179;28;20047;-66
2023/03/02 00:53:09;;;;;;;36.33;20.63;;;;;;;;;;5079702;28;20051;-66
2023/03/02 00:55:36;;;;;;;39.50;21.33;;;;;;;;;;5081670;28;20046;-65
2023/03/02 00:58:03;;;;;;;37.55;20.98;;;;;;;;;;5084257;28;20093;-65
2023/03/02 01:00:29;;;;;;;36.88;20.83;;;;;;;;;;5077061;28;20040;-65
2023/03/02 01:02:55;;;;;;;34.63;20.10;;;;;;;;;;5083383;28;20196;-65
2023/03/02 01:05:21;;;;;;;34.30;21.17;;;;;;;;;;5074411;28;20044;-65
2023/03/02 01:07:47;;;;;;;38.40;21.67;;;;;;;;;;5073702;28;20050;-65
2023/03/02 01:10:14;;;;;;;39.35;21.55;;;;;;;;;;5072600;28;20051;-66
2023/03/02 01:12:40;;;;;;;35.92;19.88;;;;;;;;;;5072243;28;20066;-65
2023/03/02 01:15:06;;;;;;;35.50;20.92;;;;;;;;;;5083865;28;20523;-65
2023/03/02 01:17:33;;;;;;;40.90;21.13;;;;;;;;;;5067031;28;20083;-65
2023/03/02 01:19:58;;;;;;;35.22;20.10;;;;;;;;;;5077466;28;20447;-64
2023/03/02 01:22:25;;;;;;;34.83;21.35;;;;;;;;;;5078249;28;20040;-65
2023/03/02 01:24:52;;;;;;;35.60;21.83;;;;;;;;;;5070861;28;20059;-65
2023/03/02 01:27:18;;;;;;;37.17;20.70;;;;;;;;;;5072936;28;20108;-66
2023/03/02 01:29:44;;;;;;;39.65;22.00;;;;;;;;;;5069391;28;20318;-65
2023/03/02 01:32:10;;;;;;;35.30;20.42;;;;;;;;;;5074762;28;20092;-65
2023/03/02 01:34:37;;;;;;;37.15;21.02;;;;;;;;;;5076946;28;20545;-65
2023/03/02 01:37:03;;;;;;;41.00;21.58;;;;;;;;;;5074125;28;20044;-65
2023/03/02 01:39:29;;;;;;;34.00;20.58;;;;;;;;;;5080081;28;20044;-66
2023/03/02 01:41:55;;;;;;;35.70;21.05;;;;;;;;;;5067207;28;20048;-65
2023/03/02 01:44:40;;;;;;;36.17;21.00;;;;;;;;;;5081975;28;20058;-65
2023/03/02 01:47:23;;;;;;;41.05;22.95;;;3.10;99.90;;;;;;5068927;28;20553;-66
2023/03/02 01:49:59;;;;;;;41.15;22.83;;;;;;;;;;5089774;28;20040;-66
2023/03/02 01:52:26;;;;;;;43.15;22.00;;;;;;;;;;5083563;28;20039;-66
2023/03/02 01:54:54;;;;;;;41.00;23.55;;;;;;;;;;5072003;28;20048;-66
2023/03/02 01:57:22;;;;;;;44.58;24.13;;;;;;;;;;5074496;28;20045;-66
2023/03/02 01:59:52;;;;;;;45.20;25.13;;;;;;;;;;5069892;28;20075;-66
2023/03/02 02:02:18;;;;;;;46.78;24.83;;;;;;;;;;5068464;28;20052;-65
2023/03/02 02:04:46;;;;;;;43.70;22.85;;;;;;;;;;5072377;28;20036;-67
2023/03/02 02:07:12;;;;;;;45.38;24.27;;;;;;;;;;5071195;28;20048;-65
2023/03/02 02:09:45;;;;;;;45.78;23.48;;;;;;;;;;5073695;28;20078;-66
2023/03/02 02:12:15;;;;;;;46.55;24.52;;;;;;;;;;5071951;28;20111;-66
2023/03/02 02:14:42;;;;;;;44.55;23.88;;;;;;;;;;5074123;28;20048;-65
2023/03/02 02:17:08;;;;;;;47.67;24.98;;;;;;;;;;5069462;28;20147;-65
2023/03/02 02:19:37;;;;;;;45.58;25.45;;;;;;;;;;5077890;28;20047;-66
2023/03/02 02:22:03;;;;;;;45.65;24.33;;;;;;;;;;5077180;28;20036;-65
2023/03/02 02:24:40;;;;;;;46.63;25.05;;;;;;;;;;5070924;28;20102;-65
2023/03/02 02:27:06;;;;;;;44.58;24.50;;;;;;;;;;5069025;28;20048;-65
2023/03/02 02:29:34;;;;;;;43.25;23.67;;;;;;;;;;5064789;28;20052;-66
2023/03/02 02:32:05;;;;;;;46.00;24.58;;;;;;;;;;5078461;28;20051;-65
2023/03/02 02:34:33;;;;;;;43.90;23.25;;;;;;;;;;5068733;28;20113;-65
2023/03/02 02:37:06;;;;;;;48.35;24.02;;;;;;;;;;5086501;28;20483;-66
2023/03/02 02:39:33;;;;;;;42.45;23.60;;;;;;;;;;5090585;28;20044;-65
2023/03/02 02:42:02;;;;;;;42.63;22.73;;;;;;;;;;5078701;28;20506;-65
2023/03/02 02:44:28;;;;;;;48.33;24.27;;;;;;;;;;5071919;28;20800;-66
2023/03/02 02:46:54;;;;;;;43.53;23.88;;;;;;;;;;5090071;28;20501;-65
2023/03/02 02:49:30;;;;;;;46.40;23.92;;;;;;;;;;5067002;28;20052;-66
2023/03/02 02:51:56;;;;;;;43.75;24.50;;;;;;;;;;5082377;28;20051;-66
2023/03/02 02:54:22;;;;;;;48.35;24.35;;;;;;;;;;5073661;28;20398;-66
2023/03/02 02:56:49;;;;;;;45.42;23.35;;;;;;;;;;5087192;28;20529;-66
2023/03/02 02:59:20;;;;;;;42.38;23.67;;;;;;;;;;5072249;28;20043;-65
2023/03/02 03:01:47;;;;;;;45.58;23.90;;;;;;;;;;5076746;28;20086;-65
2023/03/02 03:04:17;;;;;;;46.00;23.85;;;;;;;;;;5087359;28;20326;-65
2023/03/02 03:07:12;;;;;;;45.63;24.15;;;;;;;;;;5075949;28;20047;-65
2023/03/02 03:09:38;;;;;;;46.38;23.83;;;;;;;;;;5060076;28;20095;-66
2023/03/02 03:12:10;;;;;;;44.92;23.45;;;;;;;;;;5074414;28;20612;-65
2023/03/02 03:14:38;;;;;;;46.60;24.25;;;;;;;;;;5063762;28;20040;-66
2023/03/02 03:17:11;;;;;;;42.05;23.00;;;;;;;;;;5079320;28;20065;-66
2023/03/02 03:19:38;;;;;;;43.53;23.05;;;;;;;;;;5071204;28;20098;-66
2023/03/02 03:22:04;;;;;;;45.17;23.38;;;;;;;;;;5074130;28;20051;-65
2023/03/02 03:24:32;;;;;;;40.80;22.73;;;2.40;99.90;;;;;;5077157;28;20055;-65
2023/03/02 03:26:59;;;;;;;43.22;22.73;;;;;;;;;;5071656;28;20043;-65
2023/03/02 03:29:27;;;;;;;44.53;23.92;;;;;;;;;;5076088;28;20072;-66
2023/03/02 03:31:54;;;;;;;46.85;24.50;;;;;;;;;;5084685;28;20044;-65
2023/03/02 03:34:20;;;;;;;45.30;24.13;;;;;;;;;;5081510;28;20086;-66
2023/03/02 03:36:46;;;;;;;45.67;23.25;;;;;;;;;;5073887;28;20036;-65
2023/03/02 03:39:12;;;;;;;44.13;23.02;;;;;;;;;;5074828;28;20051;-65
2023/03/02 03:41:39;;;;;;;43.28;22.67;;;;;;;;;;5077621;28;20136;-65
2023/03/02 03:44:05;;;;;;;48.03;23.80;;;;;;;;;;5075889;28;20044;-66
2023/03/02 03:46:31;;;;;;;46.10;24.00;;;;;;;;;;5070319;28;20051;-66
2023/03/02 03:48:57;;;;;;;43.80;22.80;;;;;;;;;;5077134;28;20044;-66
2023/03/02 03:51:23;;;;;;;45.85;24.13;;;;;;;;;;5079265;28;20120;-66
2023/03/02 03:53:58;;;;;;;48.75;23.88;;;;;;;;;;5081684;28;20047;-66
2023/03/02 03:56:28;;;;;;;45.08;22.90;;;2.60;99.90;;;;;;5075116;28;20070;-65
2023/03/02 03:59:05;;;;;;;44.30;22.35;;;;;;;;;;5082559;28;20325;-65
2023/03/02 04:01:33;;;;;;;43.00;22.83;;;;;;;;;;5075545;28;20453;-66
2023/03/02 04:04:00;;;;;;;40.95;22.33;;;;;;;;;;5076094;28;20040;-65
2023/03/02 04:06:25;;;;;;;41.65;23.50;;;;;;;;;;5074872;28;20452;-65
2023/03/02 04:08:51;;;;;;;41.17;21.40;;;;;;;;;;5076180;28;20039;-65
2023/03/02 04:11:17;;;;;;;41.53;21.52;;;;;;;;;;5075591;28;20477;-65
2023/03/02 04:13:43;;;;;;;39.15;20.30;;;2.30;99.90;;;;;;5076105;28;20052;-65
2023/03/02 04:16:09;;;;;;;42.50;22.23;;;;;;;;;;5084131;28;20382;-65
2023/03/02 04:18:35;;;;;;;47.90;23.15;;;;;;;;;;5080577;28;20402;-65
2023/03/02 04:21:01;;;;;;;40.83;21.88;;;;;;;;;;5078269;28;20036;-65
2023/03/02 04:23:27;;;;;;;41.92;21.88;;;;;;;;;;5079630;28;20055;-66
2023/03/02 04:25:53;;;;;;;48.67;23.73;;;;;;;;;;5073346;28;20137;-66
2023/03/02 04:28:19;;;;;;;44.85;23.00;;;;;;;;;;5069095;28;20072;-66
2023/03/02 04:30:45;;;;;;;42.92;22.02;;;;;;;;;;5075177;28;20072;-65
2023/03/02 04:33:11;;;;;;;50.83;21.33;;;;;;;;;;5076746;28;20089;-65
2023/03/02 04:35:37;;;;;;;47.88;21.98;;;;;;;;;;5082456;28;20044;-65
2023/03/02 04:38:03;;;;;;;46.83;22.00;;;;;;;;;;5068883;28;20043;-66
2023/03/02 04:40:29;;;;;;;59.42;21.77;;;;;;;;;;5064397;28;20059;-66
2023/03/02 04:42:55;;;;;;;56.97;21.20;;;;;;;;;;5086161;28;20055;-65
2023/03/02 04:45:20;;;;;;;61.35;20.73;;;;;;;;;;5079086;28;20368;-65
2023/03/02 04:47:46;;;;;;;49.65;21.50;;;2.00;99.90;;;;;;5078849;28;20040;-66
2023/03/02 04:50:14;;;;;;;57.97;20.30;;;;;;;;;;5074844;28;20040;-66
2023/03/02 04:52:41;;;;;;;49.80;21.13;;;;;;;;;;5084579;28;20346;-65
2023/03/02 04:55:07;;;;;;;57.00;22.90;;;;;;;;;;5076347;28;20040;-66
2023/03/02 04:57:33;;;;;;;64.47;21.33;;;;;;;;;;5078040;28;20383;-65
2023/03/02 04:59:59;;;;;;;71.15;21.33;;;;;;;;;;5072807;28;20416;-66
2023/03/02 05:02:25;;;;;;;61.78;21.38;;;;;;;;;;5084063;28;20044;-66
2023/03/02 05:04:51;;;;;;;72.35;21.52;;;;;;;;;;5082055;28;20096;-66
2023/03/02 05:07:17;;;;;;;64.82;20.77;;;;;;;;;;5069825;28;20036;-67
2023/03/02 05:09:43;;;;;;;54.95;19.48;;;;;;;;;;5073755;28;20048;-66
2023/03/02 05:12:09;;;;;;;57.42;21.63;;;;;;;;;;5077710;28;20067;-65
2023/03/02 05:14:35;;;;;;;55.55;22.38;;;;;;;;;;5062423;28;20055;-66
2023/03/02 05:17:01;;;;;;;57.72;22.13;;;;;;;;;;5074000;28;20131;-65
2023/03/02 05:19:27;;;;;;;60.70;22.85;;;;;;;;;;5075415;28;20383;-66
2023/03/02 05:21:53;;;;;;;75.60;22.55;;;;;;;;;;5088209;28;20455;-66
2023/03/02 05:24:19;;;;;;;61.45;20.02;;;;;;;;;;5086838;28;20439;-66
2023/03/02 05:26:45;;;;;;;68.07;22.08;;;;;;;;;;5070807;28;20569;-69
2023/03/02 05:29:11;;;;;;;57.75;20.58;;;;;;;;;;5069472;28;20103;-66
2023/03/02 05:31:38;;;;;;;59.22;22.20;;;;;;;;;;5066693;28;20127;-66
2023/03/02 05:34:05;;;;;;;69.40;23.70;;;;;;;;;;5071579;28;20349;-66
2023/03/02 05:36:31;;;;;;;54.70;20.92;;;;;;;;;;5066787;28;20044;-67
2023/03/02 05:38:57;;;;;;;53.58;21.45;;;;;;;;;;5067515;28;20052;-67
2023/03/02 05:41:24;;;;;;;51.30;21.75;;;;;;;;;;5070661;28;20047;-69
2023/03/02 05:43:50;;;;;;;63.85;22.20;;;;;;;;;;5061984;28;20517;-70
2023/03/02 05:46:16;;;;;;;60.75;22.48;;;;;;;;;;5061939;28;20044;-70
2023/03/02 05:48:42;;;;;;;72.25;22.80;;;;;;;;;;5064825;28;20098;-66
2023/03/02 05:51:08;;;;;;;50.25;22.40;;;;;;;;;;5068524;28;20044;-69
2023/03/02 05:53:34;;;;;;;56.90;22.75;;;;;;;;;;5071479;28;20405;-69
2023/03/02 05:56:00;;;;;;;68.00;22.70;;;;;;;;;;5067507;28;20036;-69
2023/03/02 05:58:26;;;;;;;67.13;24.15;;;;;;;;;;5065119;28;20115;-68
2023/03/02 06:00:55;;;;;;;56.15;22.95;;;;;;;;;;5070687;28;20403;-70
2023/03/02 06:03:21;;;;;;;54.45;23.45;;;;;;;;;;5064471;28;20040;-68
2023/03/02 06:05:49;;;;;;;63.55;24.67;;;;;;;;;;5066646;28;20078;-69
2023/03/02 06:08:17;;;;;;;53.15;22.27;;;;;;;;;;5070143;28;20044;-71
2023/03/02 06:10:43;;;;;;;66.85;23.83;;;;;;;;;;5063756;28;20451;-71
2023/03/02 06:13:09;;;;;;;52.78;22.80;;;;;;;;;;5072473;28;20039;-69
2023/03/02 06:15:35;;;;;;;53.65;23.48;;;;;;;;;;5069499;28;20128;-66
2023/03/02 06:18:02;;;;;;;70.20;23.58;;;;;;;;;;5073268;28;20526;-67
2023/03/02 06:20:27;;;;;;;67.90;23.85;;;;;;;;;;5074810;28;20177;-67
2023/03/02 06:22:54;;;;;;;66.25;23.10;;;;;;;;;;5064425;28;20040;-68
2023/03/02 06:25:21;;;;;;;63.40;24.42;;;;;;;;;;5081149;28;20624;-67
2023/03/02 06:27:50;;;;;;;62.33;25.10;;;;;;;;;;5064617;28;20049;-69
2023/03/02 06:30:18;;;;;;;63.40;24.13;;;;;;;;;;5065187;28;20048;-70
2023/03/02 06:32:44;;;;;;;70.57;24.55;;;;;;;;;;5074749;28;20089;-66
2023/03/02 06:35:11;;;;;;;63.00;24.70;;;;;;;;;;5069716;28;20130;-68
2023/03/02 06:37:37;;;;;;;67.07;24.60;;;;;;;;;;5065208;28;20053;-66
2023/03/02 06:40:09;;;;;;;72.72;26.05;;;;;;;;;;5064802;28;20398;-67
2023/03/02 06:42:35;;;;;;;85.50;27.83;;;;;;;;;;5069569;28;20127;-65
2023/03/02 06:45:01;;;;;;;66.95;24.48;;;;;;;;;;5070000;28;20037;-65
2023/03/02 06:47:27;;;;;;;57.05;23.08;;;;;;;;;;5069253;28;20488;-65
2023/03/02 06:49:53;;;;;;;55.78;23.13;;;;;;;;;;5060780;28;20462;-67
2023/03/02 06:52:19;;;;;;;50.78;22.67;;;;;;;;;;5067383;28;20078;-66
2023/03/02 06:54:45;;;;;;;64.43;24.25;;;;;;;;;;5066623;28;20488;-66
2023/03/02 06:57:11;;;;;;;66.03;22.55;;;;;;;;;;5065616;28;20369;-67
2023/03/02 06:59:37;;;;;;;69.43;22.80;;;;;;;;;;5063845;28;21599;-67
2023/03/02 07:02:03;;;;;;;63.05;23.40;;;;;;;;;;5052045;28;20044;-67
2023/03/02 07:04:28;;;;;;;72.70;24.40;;;;;;;;;;5059248;28;20056;-67
2023/03/02 07:06:55;;;;;;;70.47;22.65;;;;;;;;;;5048512;28;20055;-68
2023/03/02 07:09:21;;;;;;;65.00;25.85;;;;;;;;;;5065795;28;20516;-67
2023/03/02 07:11:47;;;;;;;68.53;24.85;;;;;;;;;;5067290;28;20043;-67
2023/03/02 07:14:13;;;;;;;64.93;24.55;;;;;;;;;;5064884;28;20372;-66
2023/03/02 07:16:39;;;;;;;63.65;23.42;;;;;;;;;;5065083;28;20040;-65
2023/03/02 07:19:05;;;;;;;68.10;22.65;;;;;;;;;;5060675;28;20455;-65
2023/03/02 07:21:31;;;;;;;61.25;23.45;;;;;;;;;;5070242;28;20045;-65
2023/03/02 07:23:57;;;;;;;72.50;23.48;;;;;;;;;;5065472;28;20499;-64
2023/03/02 07:26:23;;;;;;;60.22;23.33;;;;;;;;;;5068316;28;20534;-66
2023/03/02 07:28:49;;;;;;;59.40;23.40;;;;;;;;;;5072158;28;20072;-66
2023/03/02 07:31:15;;;;;;;62.58;21.15;;;;;;;;;;5067697;28;20045;-66
2023/03/02 07:33:41;;;;;;;61.15;23.45;;;;;;;;;;5069966;28;20048;-65
2023/03/02 07:36:07;;;;;;;61.30;22.33;;;;;;;;;;5070952;28;20681;-66
2023/03/02 07:38:34;;;;;;;65.07;23.67;;;;;;;;;;5072920;28;20506;-66
2023/03/02 07:41:00;;;;;;;76.93;24.27;;;;;;;;;;5497500;23;20031;-66
2023/03/02 07:43:27;;;;;;;78.32;26.60;;;;;;;;;;5023906;28;20136;-64
2023/03/02 07:45:53;;;;;;;71.95;23.80;;;;;;;;;;5008395;28;20056;-65
2023/03/02 07:51:42;;;;;;;71.22;23.80;;;;;;;;;;5125752;23;20065;-65
2023/03/02 08:00:53;;;;;;;53.70;21.58;;;;;;;;;;5022844;28;20037;-66
2023/03/02 08:03:19;;;;;;;52.92;23.30;;;;;;;;;;5009087;28;20041;-64
2023/03/02 08:05:45;;;;;;;53.63;22.38;;;;;;;;;;5026393;28;20517;-65
2023/03/02 08:08:11;;;;;;;48.67;22.48;;;;;;;;;;5027258;28;20118;-66
2023/03/02 08:10:37;;;;;;;58.70;22.83;;;;;;;;;;5026308;28;20041;-65
2023/03/02 08:13:04;;;;;;;62.92;23.17;;;;;;;;;;5026792;28;20050;-65
2023/03/02 08:15:30;;;;;;;56.33;21.27;;;;;;;;;;5008970;28;20049;-65
2023/03/02 08:17:56;;;;;;;62.28;22.33;;;;;;;;;;5008230;28;20068;-64
2023/03/02 08:20:22;;;;;;;56.80;21.73;;;;;;;;;;5007995;28;20083;-67
2023/03/02 08:22:48;;;;;;;50.65;21.67;;;;;;;;;;5027290;28;20037;-67
2023/03/02 08:25:14;;;;;;;51.75;21.83;;;;;;;;;;5027476;28;20088;-63
2023/03/02 08:27:40;;;;;;;47.17;21.17;;;;;;;;;;5025434;28;20358;-67
2023/03/02 08:30:07;;;;;;;46.83;21.67;;;;;;;;;;5008130;28;20045;-65
2023/03/02 08:32:33;;;;;;;50.22;21.80;;;;;;;;;;5008622;28;20057;-64
2023/03/02 08:34:59;;;;;;;44.92;20.90;;;;;;;;;;5024321;28;20172;-66
2023/03/02 08:37:25;;;;;;;46.20;21.52;;;;;;;;;;5017843;28;20057;-65
2023/03/02 08:39:51;;;;;;;48.20;22.08;;;;;;;;;;4998521;28;20505;-67
2023/03/02 08:42:17;;;;;;;48.03;22.00;;;;;;;;;;5004299;28;20060;-65
2023/03/02 08:44:43;;;;;;;43.75;21.05;;;;;;;;;;5006017;28;20041;-67
2023/03/02 08:47:09;;;;;;;42.58;20.88;;;;;;;;;;5003121;28;20048;-67
2023/03/02 08:49:36;;;;;;;50.08;23.13;;;;;;;;;;5001728;28;20053;-70
2023/03/02 08:52:03;;;;;;;43.20;21.67;;;;;;;;;;5005150;28;20061;-66
2023/03/02 08:54:29;;;;;;;47.50;21.58;;;;;;;;;;5006183;28;20478;-65
2023/03/02 08:56:56;;;;;;;39.70;21.20;;;;;;;;;;5006203;28;20049;-64
2023/03/02 08:59:22;;;;;;;47.88;21.63;;;;;;;;;;4999990;28;20053;-65
2023/03/02 09:01:48;;;;;;;39.60;19.95;;;;;;;;;;5020701;28;20041;-63
2023/03/02 09:04:14;;;;;;;42.90;21.10;;;;;;;;;;5006289;28;20041;-64
2023/03/02 09:06:41;;;;;;;42.15;20.73;;;;;;;;;;5022245;28;20048;-63
2023/03/02 09:09:07;;;;;;;41.05;21.77;;;;;;;;;;5021412;28;20116;-67
2023/03/02 09:11:34;;;;;;;42.88;20.33;;;;;;;;;;5013453;28;20481;-65
2023/03/02 09:14:00;;;;;;;42.40;20.85;;;;;;;;;;5002128;28;20041;-66
2023/03/02 09:16:26;;;;;;;40.45;21.35;;;;;;;;;;5000734;28;20094;-67
2023/03/02 09:18:53;;;;;;;42.97;21.30;;;;;;;;;;5003008;28;20499;-67
2023/03/02 09:21:19;;;;;;;39.47;20.50;;;;;;;;;;5015038;28;20453;-67
2023/03/02 09:23:45;;;;;;;42.15;20.88;;;;;;;;;;5003478;28;20104;-66
2023/03/02 09:26:11;;;;;;;43.85;22.25;;;;;;;;;;5008229;28;20435;-65
2023/03/02 09:28:37;;;;;;;40.80;21.88;;;;;;;;;;4995613;28;20738;-65
2023/03/02 09:31:04;;;;;;;39.67;21.20;;;;;;;;;;4999821;28;20049;-65
2023/03/02 09:33:30;;;;;;;37.80;20.13;;;;;;;;;;5002795;28;20460;-67
2023/03/02 09:35:57;;;;;;;37.90;20.38;;;;;;;;;;5019436;28;20785;-66
2023/03/02 09:38:23;;;;;;;36.65;19.10;;;;;;;;;;4983358;28;20071;-64
2023/03/02 09:40:52;;;;;;;37.45;19.05;;;;;;;;;;5000856;28;20080;-65
2023/03/02 09:43:37;;;;;;;35.97;18.70;;;;;;;;;;5003235;28;20147;-64
2023/03/02 09:46:21;;;;;;;32.85;18.02;;;;;;;;;;4985474;28;20045;-64
2023/03/02 09:49:06;;;;;;;35.33;18.70;;;;;;;;;;5020460;28;20048;-66
2023/03/02 09:51:35;;;;;;;36.40;19.13;;;;;;;;;;5018374;28;20069;-66
2023/03/02 09:54:12;;;;;;;31.10;18.10;;;;;;;;;;5002204;28;20057;-64
2023/03/02 09:56:44;;;;;;;32.90;18.55;;;;;;;;;;5021127;28;20045;-65
2023/03/02 09:59:30;;;;;;;36.55;19.92;;;;;;;;;;5015694;28;20037;-65
2023/03/02 10:02:02;;;;;;;33.72;18.10;;;;;;;;;;4997059;28;20048;-66
2023/03/02 10:04:30;;;;;;;31.27;17.95;;;;;;;;;;5021352;28;20102;-67
2023/03/02 10:07:02;;;;;;;41.22;19.98;;;;;;;;;;5004709;28;20045;-66
2023/03/02 10:09:28;;;;;;;35.78;19.25;;;;;;;;;;5005768;28;20094;-64
2023/03/02 10:12:14;;;;;;;33.08;18.98;;;;;;;;;;5020830;28;20499;-64
2023/03/02 10:14:46;;;;;;;35.45;19.88;;;;;;;;;;4987204;28;20057;-64
2023/03/02 10:17:27;;;;;;;38.72;19.80;;;;;;;;;;4986722;28;20107;-66
2023/03/02 10:19:57;;;;;;;37.95;20.38;;;;;;;;;;4995039;28;20081;-68
2023/03/02 10:22:26;;;;;;;34.17;19.73;;;;;;;;;;4999828;28;20080;-67
2023/03/02 10:24:59;;;;;;;35.08;19.00;;;;;;;;;;5021585;28;20507;-65
2023/03/02 10:27:36;;;;;;;37.60;18.52;;;;;;;;;;5004168;28;20041;-69
2023/03/02 10:30:34;;;;;;;36.72;19.45;;;;;;;;;;5000694;28;20041;-69
2023/03/02 10:33:13;;;;;;;33.90;19.08;;;;;;;;;;4966309;28;20053;-65
2023/03/02 10:35:42;;;;;;;35.92;18.95;;;;;;;;;;5020842;28;20165;-66
2023/03/02 10:38:12;;;;;;;36.30;20.30;;;;;;;;;;5002419;28;20084;-65
2023/03/02 10:40:39;;;;;;;33.45;19.75;;;;;;;;;;5001233;28;20041;-65
2023/03/02 10:43:06;;;;;;;34.22;18.65;;;;;;;;;;5001124;28;20041;-65
2023/03/02 10:45:32;;;;;;;32.13;19.10;;;;;;;;;;5001223;28;20049;-65
2023/03/02 10:48:12;;;;;;;30.40;18.15;;;;;;;;;;4998909;28;20081;-67
2023/03/02 10:50:38;;;;;;;33.63;17.27;;;;;;;;;;4997743;28;20057;-66
2023/03/02 10:53:29;;;;;;;32.60;18.92;;;;;;;;;;5021184;28;20516;-67
2023/03/02 10:55:55;;;;;;;32.30;18.75;;;;;;;;;;4996930;28;20439;-65
2023/03/02 10:58:31;;;;;;;32.75;18.25;;;;;;;;;;4998627;28;20124;-67
2023/03/02 11:01:02;;;;;;;30.77;17.98;;;;;;;;;;5002134;28;20140;-76
2023/03/02 11:03:28;;;;;;;33.08;18.20;;;;;;;;;;5003924;28;20049;-72
2023/03/02 11:05:54;;;;;;;26.48;13.23;;;;;;;;;;5020073;28;20049;-73
2023/03/02 11:08:39;;;;;;;29.05;16.15;;;;;;;;;;5003859;28;20565;-70
2023/03/02 11:11:05;;;;;;;31.42;18.60;;;;;;;;;;5006592;28;20095;-67
2023/03/02 11:13:38;;;;;;;28.90;16.02;;;;;;;;;;5002003;28;20053;-67
2023/03/02 11:16:06;;;;;;;30.15;17.58;;;;;;;;;;5024107;28;20052;-67
2023/03/02 11:18:41;;;;;;;28.02;17.38;;;;;;;;;;5005132;28;20064;-68
2023/03/02 11:21:13;;;;;;;30.15;17.50;;;;;;;;;;5005695;28;20041;-68
2023/03/02 11:23:57;;;;;;;28.42;17.13;;;;;;;;;;5025061;28;20037;-69
2023/03/02 11:26:25;;;;;;;27.90;16.52;;;;;;;;;;5025398;28;20041;-65
2023/03/02 11:28:55;;;;;;;30.75;18.10;;;;;;;;;;5025000;28;20033;-71
2023/03/02 11:31:23;;;;;;;28.52;16.63;;;;;;;;;;5011450;28;20037;-66
2023/03/02 11:33:49;;;;;;;28.75;17.45;;;;;;;;;;5011258;28;20483;-67
2023/03/02 11:36:18;;;;;;;29.05;16.63;;;;;;;;;;5010878;28;20141;-68
2023/03/02 11:38:49;;;;;;;28.83;16.05;;;;;;;;;;5026145;28;20037;-68
2023/03/02 11:41:29;;;;;;;27.58;16.63;;;;;;;;;;5026056;28;20504;-68
2023/03/02 11:43:56;;;;;;;26.65;16.10;;;;;;;;;;5028040;28;20124;-68
2023/03/02 11:46:24;;;;;;;26.67;16.33;;;;;;;;;;5007619;28;20127;-68
2023/03/02 11:48:52;;;;;;;26.98;15.80;;;;;;;;;;5024531;28;20037;-68
2023/03/02 11:51:22;;;;;;;26.75;17.00;;;;;;;;;;5025504;28;20107;-68
2023/03/02 11:53:59;;;;;;;26.98;16.70;;;;;;;;;;5008549;28;20125;-68
2023/03/02 11:56:30;;;;;;;30.23;18.35;;;;;;;;;;5024594;28;20041;-68
2023/03/02 11:58:58;;;;;;;26.48;16.33;;;;;;;;;;5025388;28;20075;-69
2023/03/02 12:01:25;;;;;;;28.48;15.77;;;;;;;;;;5013579;28;20041;-68
2023/03/02 12:03:51;;;;;;;25.70;14.90;;;;;;;;;;5028256;28;20049;-68
2023/03/02 12:06:17;;;;;;;22.50;13.85;;;;;;;;;;5014251;28;20132;-68
2023/03/02 12:08:48;;;;;;;22.30;14.30;;;12.50;99.90;;;;;;5007893;28;20206;-68
2023/03/02 12:11:17;;;;;;;21.17;14.43;;;;;;;;;;5010054;28;20124;-68
2023/03/02 12:13:44;;;;;;;23.05;14.90;;;;;;;;;;5027935;28;20041;-68
2023/03/02 12:16:33;;;;;;;24.17;14.75;;;;;;;;;;5027366;28;20566;-68
2023/03/02 12:18:59;;;;;;;23.10;14.15;;;;;;;;;;5005324;28;20076;-68
2023/03/02 12:21:25;;;;;;;22.75;14.40;;;;;;;;;;5004607;28;20041;-68
2023/03/02 12:23:51;;;;;;;23.98;15.25;;;;;;;;;;5007412;28;20057;-68
2023/03/02 12:26:20;;;;;;;26.90;15.00;;;;;;;;;;5009745;28;20038;-69
2023/03/02 12:28:57;;;;;;;21.50;13.65;;;;;;;;;;5010733;28;20048;-68
2023/03/02 12:31:24;;;;;;;23.33;14.50;;;;;;;;;;5009913;28;20093;-68
2023/03/02 12:33:51;;;;;;;23.27;14.10;;;;;;;;;;5009750;28;20037;-68
2023/03/02 12:36:37;;;;;;;19.90;13.35;;;;;;;;;;5010045;28;20051;-68
2023/03/02 12:39:18;;;;;;;24.00;15.10;;;;;;;;;;4990805;28;20075;-68
2023/03/02 12:41:54;;;;;;;24.98;14.80;;;;;;;;;;5010038;28;20041;-68
2023/03/02 12:44:20;;;;;;;22.63;14.10;;;;;;;;;;5008323;28;20046;-68
2023/03/02 12:46:46;;;;;;;23.05;14.23;;;;;;;;;;5008338;28;20041;-68
2023/03/02 12:49:12;;;;;;;22.85;14.57;;;;;;;;;;5023585;28;20045;-68
2023/03/02 12:51:50;;;;;;;18.08;11.30;;;;;;;;;;5025355;28;20647;-68
2023/03/02 12:54:17;;;;;;;21.05;11.77;;;;;;;;;;5024840;28;20119;-68
2023/03/02 12:56:44;;;;;;;20.15;11.25;;;;;;;;;;5027574;28;20052;-68
2023/03/02 12:59:19;;;;;;;17.13;11.02;;;;;;;;;;5023378;28;20044;-68
2023/03/02 13:01:45;;;;;;;18.20;11.15;;;8.20;99.90;;;;;;5007452;28;20172;-68
2023/03/02 13:04:20;;;;;;;19.90;12.00;;;;;;;;;;5027435;28;20750;-68
2023/03/02 13:06:46;;;;;;;21.55;13.48;;;;;;;;;;5003581;28;20046;-68
2023/03/02 13:09:13;;;;;;;21.17;12.77;;;;;;;;;;5022557;28;20045;-68
2023/03/02 13:11:39;;;;;;;19.67;11.63;;;;;;;;;;5008134;28;20057;-67
2023/03/02 13:14:24;;;;;;;16.77;10.15;;;;;;;;;;5026794;28;20049;-69
2023/03/02 13:16:57;;;;;;;14.00;8.43;;;;;;;;;;5027433;28;20048;-68
2023/03/02 13:19:24;;;;;;;15.00;9.15;;;;;;;;;;5009184;28;20041;-68
2023/03/02 13:21:50;;;;;;;18.75;10.00;;;;;;;;;;5027083;28;20037;-68
2023/03/02 13:24:26;;;;;;;15.82;10.30;;;;;;;;;;5009858;28;20081;-68
2023/03/02 13:26:57;;;;;;;15.45;10.30;;;8.40;99.90;;;;;;5026827;28;20080;-68
2023/03/02 13:29:25;;;;;;;16.48;9.50;;;;;;;;;;5026417;28;20037;-68
2023/03/02 13:31:51;;;;;;;14.32;8.98;;;8.50;99.90;;;;;;5007931;28;20120;-68
2023/03/02 13:34:27;;;;;;;14.10;9.10;;;;;;;;;;5027036;28;20809;-68
2023/03/02 13:36:54;;;;;;;16.63;9.65;;;;;;;;;;5026773;28;20073;-68
2023/03/02 13:39:28;;;;;;;17.13;10.48;;;;;;;;;;5026406;28;20084;-68
2023/03/02 13:41:54;;;;;;;18.42;9.68;;;;;;;;;;5009106;28;20402;-68
2023/03/02 13:44:23;;;;;;;15.40;9.00;;;;;;;;;;5026695;28;20049;-68
2023/03/02 13:46:49;;;;;;;19.30;11.25;;;;;;;;;;5026972;28;20047;-68
2023/03/02 13:49:25;;;;;;;21.30;10.52;;;;;;;;;;5008730;28;20049;-68
2023/03/02 13:52:04;;;;;;;22.83;11.68;;;8.30;99.90;;;;;;5008424;28;20053;-68
2023/03/02 13:54:33;;;;;;;18.02;10.90;;;8.20;99.90;;;;;;5022613;28;20055;-68
2023/03/02 13:57:01;;;;;;;21.42;11.35;;;;;;;;;;5026231;28;20037;-68
2023/03/02 13:59:27;;;;;;;23.98;11.60;;;8.30;99.90;;;;;;5022180;28;20052;-68
2023/03/02 14:01:53;;;;;;;21.85;11.40;;;;;;;;;;5007551;28;20049;-68
2023/03/02 14:04:22;;;;;;;23.48;12.10;;;;;;;;;;5023653;28;20049;-68
2023/03/02 14:06:48;;;;;;;26.90;13.73;;;;;;;;;;5023090;28;20049;-68
2023/03/02 14:09:14;;;;;;;25.30;13.18;;;;;;;;;;5007840;28;20053;-68
2023/03/02 14:11:45;;;;;;;23.70;12.27;;;;;;;;;;5026738;28;20589;-68
2023/03/02 14:14:16;;;;;;;28.23;13.77;;;;;;;;;;5020905;28;20514;-68
2023/03/02 14:16:41;;;;;;;22.08;11.93;;;8.30;99.90;;;;;;5025803;28;20642;-68
2023/03/02 14:19:09;;;;;;;25.08;12.52;;;;;;;;;;5025939;28;20128;-68
2023/03/02 14:21:35;;;;;;;18.65;10.85;;;;;;;;;;5024309;28;20045;-68
2023/03/02 14:24:00;;;;;;;18.33;10.07;;;;;;;;;;5008600;28;20551;-68
2023/03/02 14:26:30;;;;;;;16.83;10.00;;;;;;;;;;5024074;28;20045;-69
2023/03/02 14:28:56;;;;;;;22.83;11.27;;;;;;;;;;5008534;28;20041;-68